Fairchance, Pennsylvania
Current Conditions -  °F | °C
As of 7:53 PM on Friday 28 Nov 2014 (Local Time) from KMGW Reporting Station
Scattered Clouds Scattered Clouds  
Wind Chill: -3°   Ceiling: Unl
Heat Index: -3°   Visibility: 10mi
Dew Point: -10°   Wind: 0mph
Humidity: 60%   Direction: NA
Pressure: 30.24"   Gusts: NA
Location:  39.82°N, 79.75°W
Report Text: KMGW 290053Z 00000KT 10SM SCT095 M03/M10 A3024 RMK AO2 SNE2357 SLP255 P0000 T10331100
Loading
Personal Weather Stations






























Interactive Weather Map New forecast layout! Learn more

10-Day Weather Forecast

Advertisements
Track Severe Weather on mobile